sensor_id;sensor_type;location;lat;lon;timestamp;P1;durP1;ratioP1;P2;durP2;ratioP2
10341;SDS011;5216;54.602;18.356;2023-04-25T00:08:01;1.60;;;1.20;;
10341;SDS011;5216;54.602;18.356;2023-04-25T00:10:27;1.83;;;1.20;;
10341;SDS011;5216;54.602;18.356;2023-04-25T00:12:54;2.63;;;1.20;;
10341;SDS011;5216;54.602;18.356;2023-04-25T00:15:20;1.63;;;1.40;;
10341;SDS011;5216;54.602;18.356;2023-04-25T00:17:59;1.50;;;1.40;;
10341;SDS011;5216;54.602;18.356;2023-04-25T00:20:25;1.60;;;1.30;;
10341;SDS011;5216;54.602;18.356;2023-04-25T00:22:52;1.20;;;1.03;;
10341;SDS011;5216;54.602;18.356;2023-04-25T00:25:19;1.20;;;1.10;;
10341;SDS011;5216;54.602;18.356;2023-04-25T00:27:46;1.80;;;1.40;;
10341;SDS011;5216;54.602;18.356;2023-04-25T00:30:13;1.67;;;1.37;;
10341;SDS011;5216;54.602;18.356;2023-04-25T00:32:40;1.90;;;1.70;;
10341;SDS011;5216;54.602;18.356;2023-04-25T00:35:07;3.80;;;1.93;;
10341;SDS011;5216;54.602;18.356;2023-04-25T00:37:33;3.70;;;2.00;;
10341;SDS011;5216;54.602;18.356;2023-04-25T00:40:00;2.63;;;1.67;;
10341;SDS011;5216;54.602;18.356;2023-04-25T00:42:27;3.10;;;1.90;;
10341;SDS011;5216;54.602;18.356;2023-04-25T00:44:54;2.13;;;1.83;;
10341;SDS011;5216;54.602;18.356;2023-04-25T00:47:22;3.07;;;2.37;;
10341;SDS011;5216;54.602;18.356;2023-04-25T00:49:49;4.67;;;2.30;;
10341;SDS011;5216;54.602;18.356;2023-04-25T00:52:15;2.73;;;2.03;;
10341;SDS011;5216;54.602;18.356;2023-04-25T00:54:42;3.03;;;2.23;;
10341;SDS011;5216;54.602;18.356;2023-04-25T00:57:09;3.13;;;2.67;;
10341;SDS011;5216;54.602;18.356;2023-04-25T00:59:37;2.90;;;2.40;;
10341;SDS011;5216;54.602;18.356;2023-04-25T01:02:04;2.80;;;2.50;;
10341;SDS011;5216;54.602;18.356;2023-04-25T01:04:34;3.47;;;2.60;;
10341;SDS011;5216;54.602;18.356;2023-04-25T01:07:00;3.17;;;2.40;;
10341;SDS011;5216;54.602;18.356;2023-04-25T01:09:29;2.73;;;2.20;;
10341;SDS011;5216;54.602;18.356;2023-04-25T01:11:56;3.13;;;2.60;;
10341;SDS011;5216;54.602;18.356;2023-04-25T01:14:23;2.83;;;2.33;;
10341;SDS011;5216;54.602;18.356;2023-04-25T01:16:50;2.90;;;2.00;;
10341;SDS011;5216;54.602;18.356;2023-04-25T01:19:17;2.47;;;1.80;;
10341;SDS011;5216;54.602;18.356;2023-04-25T01:21:44;2.37;;;1.70;;
10341;SDS011;5216;54.602;18.356;2023-04-25T01:24:11;3.03;;;2.10;;
10341;SDS011;5216;54.602;18.356;2023-04-25T01:26:39;2.50;;;2.00;;
10341;SDS011;5216;54.602;18.356;2023-04-25T01:29:07;2.63;;;2.00;;
10341;SDS011;5216;54.602;18.356;2023-04-25T01:31:34;2.00;;;1.63;;
10341;SDS011;5216;54.602;18.356;2023-04-25T01:34:01;2.10;;;1.90;;
10341;SDS011;5216;54.602;18.356;2023-04-25T01:36:27;2.53;;;1.70;;
10341;SDS011;5216;54.602;18.356;2023-04-25T01:38:54;2.30;;;1.70;;
10341;SDS011;5216;54.602;18.356;2023-04-25T01:41:21;1.67;;;1.50;;
10341;SDS011;5216;54.602;18.356;2023-04-25T01:43:49;2.00;;;1.60;;
10341;SDS011;5216;54.602;18.356;2023-04-25T01:46:16;3.77;;;1.70;;
10341;SDS011;5216;54.602;18.356;2023-04-25T01:48:52;2.17;;;1.83;;
10341;SDS011;5216;54.602;18.356;2023-04-25T01:51:19;2.20;;;1.80;;
10341;SDS011;5216;54.602;18.356;2023-04-25T01:53:45;2.00;;;1.80;;
10341;SDS011;5216;54.602;18.356;2023-04-25T01:56:12;1.70;;;1.60;;
10341;SDS011;5216;54.602;18.356;2023-04-25T01:58:39;2.50;;;2.30;;
10341;SDS011;5216;54.602;18.356;2023-04-25T02:01:05;2.60;;;2.00;;
10341;SDS011;5216;54.602;18.356;2023-04-25T02:03:32;2.43;;;2.20;;
10341;SDS011;5216;54.602;18.356;2023-04-25T02:05:59;3.43;;;2.03;;
10341;SDS011;5216;54.602;18.356;2023-04-25T02:08:26;2.43;;;1.90;;
10341;SDS011;5216;54.602;18.356;2023-04-25T02:10:53;4.07;;;1.87;;
10341;SDS011;5216;54.602;18.356;2023-04-25T02:13:20;2.20;;;1.83;;
10341;SDS011;5216;54.602;18.356;2023-04-25T02:15:46;2.10;;;1.80;;
10341;SDS011;5216;54.602;18.356;2023-04-25T02:18:13;2.13;;;1.70;;
10341;SDS011;5216;54.602;18.356;2023-04-25T02:20:42;3.10;;;2.10;;
10341;SDS011;5216;54.602;18.356;2023-04-25T02:23:09;2.73;;;1.90;;
10341;SDS011;5216;54.602;18.356;2023-04-25T02:25:36;2.10;;;1.90;;
10341;SDS011;5216;54.602;18.356;2023-04-25T02:28:06;3.03;;;1.93;;
10341;SDS011;5216;54.602;18.356;2023-04-25T02:30:32;2.50;;;2.00;;
10341;SDS011;5216;54.602;18.356;2023-04-25T02:32:59;3.67;;;2.00;;
10341;SDS011;5216;54.602;18.356;2023-04-25T02:35:25;1.97;;;1.87;;
10341;SDS011;5216;54.602;18.356;2023-04-25T02:37:52;4.80;;;2.10;;
10341;SDS011;5216;54.602;18.356;2023-04-25T02:40:19;3.03;;;2.17;;
10341;SDS011;5216;54.602;18.356;2023-04-25T02:42:46;2.53;;;2.23;;
10341;SDS011;5216;54.602;18.356;2023-04-25T02:45:12;3.17;;;2.53;;
10341;SDS011;5216;54.602;18.356;2023-04-25T02:47:39;3.33;;;2.53;;
10341;SDS011;5216;54.602;18.356;2023-04-25T02:50:05;3.93;;;2.30;;
10341;SDS011;5216;54.602;18.356;2023-04-25T02:52:32;3.80;;;2.73;;
10341;SDS011;5216;54.602;18.356;2023-04-25T02:54:59;2.77;;;2.50;;
10341;SDS011;5216;54.602;18.356;2023-04-25T02:57:25;3.40;;;2.60;;
10341;SDS011;5216;54.602;18.356;2023-04-25T02:59:52;3.50;;;2.70;;
10341;SDS011;5216;54.602;18.356;2023-04-25T03:02:19;2.87;;;2.60;;
10341;SDS011;5216;54.602;18.356;2023-04-25T03:04:45;2.60;;;2.40;;
10341;SDS011;5216;54.602;18.356;2023-04-25T03:07:12;2.80;;;2.50;;
10341;SDS011;5216;54.602;18.356;2023-04-25T03:09:39;3.53;;;2.70;;
10341;SDS011;5216;54.602;18.356;2023-04-25T03:12:06;2.93;;;2.60;;
10341;SDS011;5216;54.602;18.356;2023-04-25T03:14:32;3.00;;;2.70;;
10341;SDS011;5216;54.602;18.356;2023-04-25T03:16:59;3.10;;;2.80;;
10341;SDS011;5216;54.602;18.356;2023-04-25T03:19:26;3.03;;;2.70;;
10341;SDS011;5216;54.602;18.356;2023-04-25T03:21:52;3.20;;;2.90;;
10341;SDS011;5216;54.602;18.356;2023-04-25T03:24:19;3.40;;;3.10;;
10341;SDS011;5216;54.602;18.356;2023-04-25T03:26:46;3.17;;;2.90;;
10341;SDS011;5216;54.602;18.356;2023-04-25T03:29:13;3.07;;;2.83;;
10341;SDS011;5216;54.602;18.356;2023-04-25T03:31:42;3.10;;;2.80;;
10341;SDS011;5216;54.602;18.356;2023-04-25T03:37:49;3.07;;;2.87;;
10341;SDS011;5216;54.602;18.356;2023-04-25T03:40:18;6.17;;;2.70;;
10341;SDS011;5216;54.602;18.356;2023-04-25T03:42:45;2.73;;;2.53;;
10341;SDS011;5216;54.602;18.356;2023-04-25T03:45:12;2.80;;;2.60;;
10341;SDS011;5216;54.602;18.356;2023-04-25T03:47:39;2.73;;;2.53;;
10341;SDS011;5216;54.602;18.356;2023-04-25T03:50:05;2.73;;;2.53;;
10341;SDS011;5216;54.602;18.356;2023-04-25T03:52:37;3.20;;;2.50;;
10341;SDS011;5216;54.602;18.356;2023-04-25T03:55:03;3.00;;;2.80;;
10341;SDS011;5216;54.602;18.356;2023-04-25T03:57:31;2.63;;;2.43;;
10341;SDS011;5216;54.602;18.356;2023-04-25T03:59:57;2.90;;;2.70;;
10341;SDS011;5216;54.602;18.356;2023-04-25T04:02:24;2.60;;;2.40;;
10341;SDS011;5216;54.602;18.356;2023-04-25T04:04:51;3.00;;;2.67;;
10341;SDS011;5216;54.602;18.356;2023-04-25T04:07:18;2.80;;;2.60;;
10341;SDS011;5216;54.602;18.356;2023-04-25T04:09:44;3.63;;;3.03;;
10341;SDS011;5216;54.602;18.356;2023-04-25T04:12:11;2.80;;;2.60;;
10341;SDS011;5216;54.602;18.356;2023-04-25T04:14:38;2.80;;;2.60;;
10341;SDS011;5216;54.602;18.356;2023-04-25T04:17:16;3.03;;;2.70;;
10341;SDS011;5216;54.602;18.356;2023-04-25T04:19:43;2.97;;;2.57;;
10341;SDS011;5216;54.602;18.356;2023-04-25T04:22:10;3.07;;;2.83;;
10341;SDS011;5216;54.602;18.356;2023-04-25T04:24:37;5.70;;;3.30;;
10341;SDS011;5216;54.602;18.356;2023-04-25T04:27:03;3.03;;;2.73;;
10341;SDS011;5216;54.602;18.356;2023-04-25T04:29:30;3.03;;;2.83;;
10341;SDS011;5216;54.602;18.356;2023-04-25T04:31:57;3.13;;;2.83;;
10341;SDS011;5216;54.602;18.356;2023-04-25T04:34:24;3.50;;;2.90;;
10341;SDS011;5216;54.602;18.356;2023-04-25T04:36:52;3.87;;;2.70;;
10341;SDS011;5216;54.602;18.356;2023-04-25T04:39:18;2.87;;;2.67;;
10341;SDS011;5216;54.602;18.356;2023-04-25T04:41:45;2.67;;;2.47;;
10341;SDS011;5216;54.602;18.356;2023-04-25T04:44:12;3.00;;;2.70;;
10341;SDS011;5216;54.602;18.356;2023-04-25T04:46:40;3.10;;;2.80;;
10341;SDS011;5216;54.602;18.356;2023-04-25T04:49:10;3.20;;;2.87;;
10341;SDS011;5216;54.602;18.356;2023-04-25T04:51:38;2.93;;;2.57;;
10341;SDS011;5216;54.602;18.356;2023-04-25T04:54:20;3.57;;;3.10;;
10341;SDS011;5216;54.602;18.356;2023-04-25T04:56:47;4.63;;;2.80;;
10341;SDS011;5216;54.602;18.356;2023-04-25T04:59:13;3.47;;;3.17;;
10341;SDS011;5216;54.602;18.356;2023-04-25T05:01:40;14.43;;;12.93;;
10341;SDS011;5216;54.602;18.356;2023-04-25T05:04:07;3.30;;;3.03;;
10341;SDS011;5216;54.602;18.356;2023-04-25T05:06:34;3.63;;;3.30;;
10341;SDS011;5216;54.602;18.356;2023-04-25T05:09:04;4.97;;;3.47;;
10341;SDS011;5216;54.602;18.356;2023-04-25T05:11:31;3.97;;;2.67;;
10341;SDS011;5216;54.602;18.356;2023-04-25T05:13:57;4.53;;;3.30;;
10341;SDS011;5216;54.602;18.356;2023-04-25T05:16:24;3.80;;;3.37;;
10341;SDS011;5216;54.602;18.356;2023-04-25T05:18:51;3.30;;;3.00;;
10341;SDS011;5216;54.602;18.356;2023-04-25T05:21:17;5.23;;;3.77;;
10341;SDS011;5216;54.602;18.356;2023-04-25T05:23:44;3.90;;;3.20;;
10341;SDS011;5216;54.602;18.356;2023-04-25T05:29:51;5.23;;;3.10;;
10341;SDS011;5216;54.602;18.356;2023-04-25T05:32:19;3.77;;;2.67;;
10341;SDS011;5216;54.602;18.356;2023-04-25T05:34:45;4.20;;;3.13;;
10341;SDS011;5216;54.602;18.356;2023-04-25T05:37:12;4.07;;;2.80;;
10341;SDS011;5216;54.602;18.356;2023-04-25T05:39:39;4.30;;;2.90;;
10341;SDS011;5216;54.602;18.356;2023-04-25T05:42:05;3.03;;;2.60;;
10341;SDS011;5216;54.602;18.356;2023-04-25T05:44:32;2.90;;;2.60;;
10341;SDS011;5216;54.602;18.356;2023-04-25T05:46:58;4.67;;;2.57;;
10341;SDS011;5216;54.602;18.356;2023-04-25T05:49:25;3.83;;;3.10;;
10341;SDS011;5216;54.602;18.356;2023-04-25T05:51:53;3.73;;;2.77;;
10341;SDS011;5216;54.602;18.356;2023-04-25T05:54:19;3.83;;;2.70;;
10341;SDS011;5216;54.602;18.356;2023-04-25T05:56:46;4.70;;;3.30;;
10341;SDS011;5216;54.602;18.356;2023-04-25T05:59:12;3.13;;;2.83;;
10341;SDS011;5216;54.602;18.356;2023-04-25T06:01:51;5.67;;;2.60;;
10341;SDS011;5216;54.602;18.356;2023-04-25T06:04:18;4.80;;;2.70;;
10341;SDS011;5216;54.602;18.356;2023-04-25T06:06:45;5.47;;;2.90;;
10341;SDS011;5216;54.602;18.356;2023-04-25T06:09:12;5.33;;;2.73;;
10341;SDS011;5216;54.602;18.356;2023-04-25T06:11:39;6.37;;;2.97;;
10341;SDS011;5216;54.602;18.356;2023-04-25T06:14:06;5.63;;;2.37;;
10341;SDS011;5216;54.602;18.356;2023-04-25T06:16:33;4.30;;;2.70;;
10341;SDS011;5216;54.602;18.356;2023-04-25T06:19:00;2.83;;;2.60;;
10341;SDS011;5216;54.602;18.356;2023-04-25T06:21:27;3.07;;;2.40;;
10341;SDS011;5216;54.602;18.356;2023-04-25T06:23:53;3.67;;;2.60;;
10341;SDS011;5216;54.602;18.356;2023-04-25T06:26:20;3.50;;;2.93;;
10341;SDS011;5216;54.602;18.356;2023-04-25T06:28:47;4.57;;;3.10;;
10341;SDS011;5216;54.602;18.356;2023-04-25T06:31:13;2.90;;;2.50;;
10341;SDS011;5216;54.602;18.356;2023-04-25T06:33:41;2.77;;;2.57;;
10341;SDS011;5216;54.602;18.356;2023-04-25T06:36:08;4.93;;;2.53;;
10341;SDS011;5216;54.602;18.356;2023-04-25T06:38:34;3.43;;;2.77;;
10341;SDS011;5216;54.602;18.356;2023-04-25T06:41:01;3.17;;;2.80;;
10341;SDS011;5216;54.602;18.356;2023-04-25T06:43:29;3.93;;;2.53;;
10341;SDS011;5216;54.602;18.356;2023-04-25T06:46:00;4.87;;;2.73;;
10341;SDS011;5216;54.602;18.356;2023-04-25T06:48:27;2.60;;;2.40;;
10341;SDS011;5216;54.602;18.356;2023-04-25T06:50:54;3.00;;;2.40;;
10341;SDS011;5216;54.602;18.356;2023-04-25T06:53:20;3.70;;;2.50;;
10341;SDS011;5216;54.602;18.356;2023-04-25T06:55:47;3.87;;;2.60;;
10341;SDS011;5216;54.602;18.356;2023-04-25T06:58:14;2.83;;;2.60;;
10341;SDS011;5216;54.602;18.356;2023-04-25T07:00:40;3.67;;;2.67;;
10341;SDS011;5216;54.602;18.356;2023-04-25T07:03:07;5.23;;;3.00;;
10341;SDS011;5216;54.602;18.356;2023-04-25T07:05:34;2.87;;;2.60;;
10341;SDS011;5216;54.602;18.356;2023-04-25T07:08:01;2.77;;;2.50;;
10341;SDS011;5216;54.602;18.356;2023-04-25T07:10:27;2.53;;;2.27;;
10341;SDS011;5216;54.602;18.356;2023-04-25T07:16:35;3.00;;;2.07;;
10341;SDS011;5216;54.602;18.356;2023-04-25T07:19:01;3.70;;;2.40;;
10341;SDS011;5216;54.602;18.356;2023-04-25T07:21:28;2.53;;;2.10;;
10341;SDS011;5216;54.602;18.356;2023-04-25T07:23:55;2.93;;;2.17;;
10341;SDS011;5216;54.602;18.356;2023-04-25T07:26:37;3.03;;;2.20;;
10341;SDS011;5216;54.602;18.356;2023-04-25T07:29:04;3.03;;;2.70;;
10341;SDS011;5216;54.602;18.356;2023-04-25T07:31:30;4.53;;;2.20;;
10341;SDS011;5216;54.602;18.356;2023-04-25T07:33:57;4.43;;;2.00;;
10341;SDS011;5216;54.602;18.356;2023-04-25T07:36:27;3.80;;;2.10;;
10341;SDS011;5216;54.602;18.356;2023-04-25T07:38:54;2.33;;;1.80;;
10341;SDS011;5216;54.602;18.356;2023-04-25T07:41:21;2.53;;;1.80;;
10341;SDS011;5216;54.602;18.356;2023-04-25T07:43:48;4.23;;;1.90;;
10341;SDS011;5216;54.602;18.356;2023-04-25T07:46:14;3.17;;;1.60;;
10341;SDS011;5216;54.602;18.356;2023-04-25T07:52:28;1.97;;;1.60;;
10341;SDS011;5216;54.602;18.356;2023-04-25T07:54:55;3.43;;;1.70;;
10341;SDS011;5216;54.602;18.356;2023-04-25T07:57:22;4.27;;;1.97;;
10341;SDS011;5216;54.602;18.356;2023-04-25T07:59:50;2.40;;;2.00;;
10341;SDS011;5216;54.602;18.356;2023-04-25T08:02:17;3.37;;;2.00;;
10341;SDS011;5216;54.602;18.356;2023-04-25T08:04:43;2.30;;;1.77;;
10341;SDS011;5216;54.602;18.356;2023-04-25T08:07:10;2.53;;;1.70;;
10341;SDS011;5216;54.602;18.356;2023-04-25T08:09:40;2.43;;;1.80;;
10341;SDS011;5216;54.602;18.356;2023-04-25T08:12:07;3.47;;;1.80;;
10341;SDS011;5216;54.602;18.356;2023-04-25T08:14:33;2.07;;;1.60;;
10341;SDS011;5216;54.602;18.356;2023-04-25T08:17:03;1.83;;;1.53;;
10341;SDS011;5216;54.602;18.356;2023-04-25T08:19:30;1.80;;;1.70;;
10341;SDS011;5216;54.602;18.356;2023-04-25T08:21:57;2.30;;;1.77;;
10341;SDS011;5216;54.602;18.356;2023-04-25T08:24:23;2.37;;;1.70;;
10341;SDS011;5216;54.602;18.356;2023-04-25T08:26:52;2.47;;;1.70;;
10341;SDS011;5216;54.602;18.356;2023-04-25T08:29:20;3.80;;;2.00;;
10341;SDS011;5216;54.602;18.356;2023-04-25T08:31:46;2.57;;;1.57;;
10341;SDS011;5216;54.602;18.356;2023-04-25T08:34:14;2.27;;;1.60;;
10341;SDS011;5216;54.602;18.356;2023-04-25T08:36:41;2.00;;;1.80;;
10341;SDS011;5216;54.602;18.356;2023-04-25T08:39:08;4.27;;;1.83;;
10341;SDS011;5216;54.602;18.356;2023-04-25T08:41:36;2.73;;;1.90;;
10341;SDS011;5216;54.602;18.356;2023-04-25T08:44:03;2.70;;;2.00;;
10341;SDS011;5216;54.602;18.356;2023-04-25T08:46:30;2.07;;;1.83;;
10341;SDS011;5216;54.602;18.356;2023-04-25T08:55:28;2.37;;;1.80;;
10341;SDS011;5216;54.602;18.356;2023-04-25T08:57:54;3.57;;;1.70;;
10341;SDS011;5216;54.602;18.356;2023-04-25T09:00:22;2.63;;;1.93;;
10341;SDS011;5216;54.602;18.356;2023-04-25T09:02:49;2.33;;;1.80;;
10341;SDS011;5216;54.602;18.356;2023-04-25T09:05:16;2.83;;;1.77;;
10341;SDS011;5216;54.602;18.356;2023-04-25T09:07:46;1.47;;;1.37;;
10341;SDS011;5216;54.602;18.356;2023-04-25T09:19:28;1.53;;;1.30;;
10341;SDS011;5216;54.602;18.356;2023-04-25T09:22:06;2.33;;;1.70;;
10341;SDS011;5216;54.602;18.356;2023-04-25T09:26:59;2.63;;;1.80;;
10341;SDS011;5216;54.602;18.356;2023-04-25T09:29:31;2.03;;;1.63;;
10341;SDS011;5216;54.602;18.356;2023-04-25T09:35:45;3.07;;;1.90;;
10341;SDS011;5216;54.602;18.356;2023-04-25T09:38:13;1.87;;;1.50;;
10341;SDS011;5216;54.602;18.356;2023-04-25T09:40:43;2.43;;;1.53;;
10341;SDS011;5216;54.602;18.356;2023-04-25T09:43:21;1.67;;;1.30;;
10341;SDS011;5216;54.602;18.356;2023-04-25T09:45:48;1.83;;;1.40;;
10341;SDS011;5216;54.602;18.356;2023-04-25T09:48:22;1.60;;;1.33;;
10341;SDS011;5216;54.602;18.356;2023-04-25T09:53:42;2.83;;;1.67;;
10341;SDS011;5216;54.602;18.356;2023-04-25T09:56:10;19.60;;;17.50;;
10341;SDS011;5216;54.602;18.356;2023-04-25T09:58:37;2.60;;;1.47;;
10341;SDS011;5216;54.602;18.356;2023-04-25T10:01:05;2.13;;;1.30;;
10341;SDS011;5216;54.602;18.356;2023-04-25T10:03:36;2.50;;;1.43;;
10341;SDS011;5216;54.602;18.356;2023-04-25T10:06:06;4.10;;;1.57;;
10341;SDS011;5216;54.602;18.356;2023-04-25T10:08:34;4.77;;;1.70;;
10341;SDS011;5216;54.602;18.356;2023-04-25T10:11:02;3.53;;;1.67;;
10341;SDS011;5216;54.602;18.356;2023-04-25T10:13:29;3.23;;;1.63;;
10341;SDS011;5216;54.602;18.356;2023-04-25T10:15:57;3.93;;;1.90;;
10341;SDS011;5216;54.602;18.356;2023-04-25T10:18:25;2.13;;;1.43;;
10341;SDS011;5216;54.602;18.356;2023-04-25T10:20:51;2.63;;;1.70;;
10341;SDS011;5216;54.602;18.356;2023-04-25T10:23:19;3.43;;;1.97;;
10341;SDS011;5216;54.602;18.356;2023-04-25T10:28:56;4.13;;;1.80;;
10341;SDS011;5216;54.602;18.356;2023-04-25T10:31:24;3.00;;;2.13;;
10341;SDS011;5216;54.602;18.356;2023-04-25T10:33:51;3.87;;;1.80;;
10341;SDS011;5216;54.602;18.356;2023-04-25T10:36:19;2.97;;;1.60;;
10341;SDS011;5216;54.602;18.356;2023-04-25T10:50:07;4.47;;;1.70;;
10341;SDS011;5216;54.602;18.356;2023-04-25T10:52:34;4.00;;;1.80;;
10341;SDS011;5216;54.602;18.356;2023-04-25T10:55:02;2.20;;;1.63;;
10341;SDS011;5216;54.602;18.356;2023-04-25T10:57:36;5.10;;;1.90;;
10341;SDS011;5216;54.602;18.356;2023-04-25T11:07:17;2.90;;;1.70;;
10341;SDS011;5216;54.602;18.356;2023-04-25T11:09:49;2.30;;;1.87;;
10341;SDS011;5216;54.602;18.356;2023-04-25T11:12:15;4.77;;;2.00;;
10341;SDS011;5216;54.602;18.356;2023-04-25T11:14:43;5.83;;;2.00;;
10341;SDS011;5216;54.602;18.356;2023-04-25T11:17:10;3.90;;;1.83;;
10341;SDS011;5216;54.602;18.356;2023-04-25T11:19:37;4.00;;;1.80;;
10341;SDS011;5216;54.602;18.356;2023-04-25T11:22:04;5.10;;;2.00;;
10341;SDS011;5216;54.602;18.356;2023-04-25T11:24:32;3.77;;;1.80;;
10341;SDS011;5216;54.602;18.356;2023-04-25T11:26:59;5.57;;;1.93;;
10341;SDS011;5216;54.602;18.356;2023-04-25T11:29:26;3.17;;;1.83;;
10341;SDS011;5216;54.602;18.356;2023-04-25T11:31:54;3.80;;;1.67;;
10341;SDS011;5216;54.602;18.356;2023-04-25T11:34:23;6.80;;;3.67;;
10341;SDS011;5216;54.602;18.356;2023-04-25T11:36:51;4.53;;;2.50;;
10341;SDS011;5216;54.602;18.356;2023-04-25T11:39:20;4.47;;;2.10;;
10341;SDS011;5216;54.602;18.356;2023-04-25T11:41:47;4.07;;;1.97;;
10341;SDS011;5216;54.602;18.356;2023-04-25T11:44:17;8.23;;;2.10;;
10341;SDS011;5216;54.602;18.356;2023-04-25T11:46:44;4.97;;;1.93;;
10341;SDS011;5216;54.602;18.356;2023-04-25T11:49:11;3.57;;;1.80;;
10341;SDS011;5216;54.602;18.356;2023-04-25T11:51:38;3.57;;;1.80;;
10341;SDS011;5216;54.602;18.356;2023-04-25T11:54:05;4.47;;;1.90;;
10341;SDS011;5216;54.602;18.356;2023-04-25T11:56:32;6.43;;;1.60;;
10341;SDS011;5216;54.602;18.356;2023-04-25T11:59:03;2.50;;;1.60;;
10341;SDS011;5216;54.602;18.356;2023-04-25T12:01:30;4.00;;;3.27;;
10341;SDS011;5216;54.602;18.356;2023-04-25T12:04:13;4.27;;;2.80;;
10341;SDS011;5216;54.602;18.356;2023-04-25T12:06:41;4.80;;;2.00;;
10341;SDS011;5216;54.602;18.356;2023-04-25T12:09:09;5.23;;;1.90;;
10341;SDS011;5216;54.602;18.356;2023-04-25T12:11:43;4.30;;;2.17;;
10341;SDS011;5216;54.602;18.356;2023-04-25T12:14:10;7.03;;;2.07;;
10341;SDS011;5216;54.602;18.356;2023-04-25T12:16:41;4.90;;;1.80;;
10341;SDS011;5216;54.602;18.356;2023-04-25T12:19:08;4.83;;;1.73;;
10341;SDS011;5216;54.602;18.356;2023-04-25T12:21:34;3.23;;;1.93;;
10341;SDS011;5216;54.602;18.356;2023-04-25T12:24:17;4.00;;;1.90;;
10341;SDS011;5216;54.602;18.356;2023-04-25T12:29:18;3.63;;;2.10;;
10341;SDS011;5216;54.602;18.356;2023-04-25T12:31:44;3.40;;;1.80;;
10341;SDS011;5216;54.602;18.356;2023-04-25T12:34:12;2.43;;;1.60;;
10341;SDS011;5216;54.602;18.356;2023-04-25T12:36:38;6.13;;;2.10;;
10341;SDS011;5216;54.602;18.356;2023-04-25T12:39:05;3.53;;;2.43;;
10341;SDS011;5216;54.602;18.356;2023-04-25T12:41:33;5.73;;;2.30;;
10341;SDS011;5216;54.602;18.356;2023-04-25T12:44:00;4.00;;;1.87;;
10341;SDS011;5216;54.602;18.356;2023-04-25T12:46:27;7.03;;;2.00;;
10341;SDS011;5216;54.602;18.356;2023-04-25T12:52:48;15.07;;;8.33;;
10341;SDS011;5216;54.602;18.356;2023-04-25T12:55:14;6.47;;;3.73;;
10341;SDS011;5216;54.602;18.356;2023-04-25T12:57:41;12.13;;;6.47;;
10341;SDS011;5216;54.602;18.356;2023-04-25T13:00:09;14.70;;;9.67;;
10341;SDS011;5216;54.602;18.356;2023-04-25T13:02:37;15.57;;;6.60;;
10341;SDS011;5216;54.602;18.356;2023-04-25T13:05:07;6.27;;;4.03;;
10341;SDS011;5216;54.602;18.356;2023-04-25T13:07:34;4.27;;;2.33;;
10341;SDS011;5216;54.602;18.356;2023-04-25T13:10:01;4.90;;;2.23;;
10341;SDS011;5216;54.602;18.356;2023-04-25T13:12:29;4.53;;;2.50;;
10341;SDS011;5216;54.602;18.356;2023-04-25T13:14:57;5.10;;;2.40;;
10341;SDS011;5216;54.602;18.356;2023-04-25T13:17:23;4.60;;;2.30;;
10341;SDS011;5216;54.602;18.356;2023-04-25T13:19:52;6.70;;;2.70;;
10341;SDS011;5216;54.602;18.356;2023-04-25T13:22:18;3.57;;;2.07;;
10341;SDS011;5216;54.602;18.356;2023-04-25T13:24:46;5.03;;;1.90;;
10341;SDS011;5216;54.602;18.356;2023-04-25T13:27:13;4.57;;;1.90;;
10341;SDS011;5216;54.602;18.356;2023-04-25T13:29:39;6.90;;;2.60;;
10341;SDS011;5216;54.602;18.356;2023-04-25T13:32:08;4.17;;;2.27;;
10341;SDS011;5216;54.602;18.356;2023-04-25T13:34:35;5.17;;;2.20;;
10341;SDS011;5216;54.602;18.356;2023-04-25T13:37:02;6.67;;;2.70;;
10341;SDS011;5216;54.602;18.356;2023-04-25T13:39:28;4.27;;;2.03;;
10341;SDS011;5216;54.602;18.356;2023-04-25T13:41:55;4.93;;;2.07;;
10341;SDS011;5216;54.602;18.356;2023-04-25T13:44:22;4.70;;;2.40;;
10341;SDS011;5216;54.602;18.356;2023-04-25T13:46:49;5.87;;;2.50;;
10341;SDS011;5216;54.602;18.356;2023-04-25T13:49:15;6.60;;;2.30;;
10341;SDS011;5216;54.602;18.356;2023-04-25T13:51:42;9.40;;;2.53;;
10341;SDS011;5216;54.602;18.356;2023-04-25T13:54:09;7.23;;;2.50;;
10341;SDS011;5216;54.602;18.356;2023-04-25T13:56:36;8.53;;;2.77;;
10341;SDS011;5216;54.602;18.356;2023-04-25T13:59:03;6.70;;;2.20;;
10341;SDS011;5216;54.602;18.356;2023-04-25T14:01:29;5.50;;;2.43;;
10341;SDS011;5216;54.602;18.356;2023-04-25T14:04:01;7.27;;;2.53;;
10341;SDS011;5216;54.602;18.356;2023-04-25T14:06:27;6.70;;;2.97;;
10341;SDS011;5216;54.602;18.356;2023-04-25T14:09:03;7.53;;;2.67;;
10341;SDS011;5216;54.602;18.356;2023-04-25T14:11:32;8.20;;;3.10;;
10341;SDS011;5216;54.602;18.356;2023-04-25T14:13:59;5.57;;;2.50;;
10341;SDS011;5216;54.602;18.356;2023-04-25T14:16:25;5.93;;;2.60;;
10341;SDS011;5216;54.602;18.356;2023-04-25T14:18:52;6.67;;;2.77;;
10341;SDS011;5216;54.602;18.356;2023-04-25T14:21:20;4.60;;;2.60;;
10341;SDS011;5216;54.602;18.356;2023-04-25T14:23:47;10.23;;;3.90;;
10341;SDS011;5216;54.602;18.356;2023-04-25T14:26:14;8.50;;;5.47;;
10341;SDS011;5216;54.602;18.356;2023-04-25T14:28:43;11.00;;;4.17;;
10341;SDS011;5216;54.602;18.356;2023-04-25T14:31:10;5.87;;;2.67;;
10341;SDS011;5216;54.602;18.356;2023-04-25T14:33:51;9.73;;;2.90;;
10341;SDS011;5216;54.602;18.356;2023-04-25T14:36:18;7.93;;;2.50;;
10341;SDS011;5216;54.602;18.356;2023-04-25T14:38:45;7.17;;;2.83;;
10341;SDS011;5216;54.602;18.356;2023-04-25T14:41:12;6.20;;;2.77;;
10341;SDS011;5216;54.602;18.356;2023-04-25T14:43:38;7.23;;;2.83;;
10341;SDS011;5216;54.602;18.356;2023-04-25T14:46:07;5.90;;;2.40;;
10341;SDS011;5216;54.602;18.356;2023-04-25T14:48:37;7.87;;;2.53;;
10341;SDS011;5216;54.602;18.356;2023-04-25T14:51:04;6.60;;;2.73;;
10341;SDS011;5216;54.602;18.356;2023-04-25T14:53:31;6.63;;;2.57;;
10341;SDS011;5216;54.602;18.356;2023-04-25T14:55:58;4.87;;;2.30;;
10341;SDS011;5216;54.602;18.356;2023-04-25T14:58:24;9.13;;;3.30;;
10341;SDS011;5216;54.602;18.356;2023-04-25T15:00:51;9.40;;;3.17;;
10341;SDS011;5216;54.602;18.356;2023-04-25T15:03:24;9.27;;;2.90;;
10341;SDS011;5216;54.602;18.356;2023-04-25T15:05:51;8.37;;;3.00;;
10341;SDS011;5216;54.602;18.356;2023-04-25T15:08:21;7.20;;;2.67;;
10341;SDS011;5216;54.602;18.356;2023-04-25T15:10:47;9.33;;;3.00;;
10341;SDS011;5216;54.602;18.356;2023-04-25T15:16:54;6.50;;;2.83;;
10341;SDS011;5216;54.602;18.356;2023-04-25T15:19:21;7.53;;;3.10;;
10341;SDS011;5216;54.602;18.356;2023-04-25T15:21:48;8.93;;;3.20;;
10341;SDS011;5216;54.602;18.356;2023-04-25T15:24:14;7.30;;;3.30;;
10341;SDS011;5216;54.602;18.356;2023-04-25T15:26:42;7.43;;;2.90;;
10341;SDS011;5216;54.602;18.356;2023-04-25T15:29:09;10.60;;;3.90;;
10341;SDS011;5216;54.602;18.356;2023-04-25T15:31:40;6.57;;;2.83;;
10341;SDS011;5216;54.602;18.356;2023-04-25T15:34:06;9.40;;;3.60;;
10341;SDS011;5216;54.602;18.356;2023-04-25T15:40:23;6.60;;;2.47;;
10341;SDS011;5216;54.602;18.356;2023-04-25T15:42:53;9.23;;;3.13;;
10341;SDS011;5216;54.602;18.356;2023-04-25T15:45:21;12.93;;;4.07;;
10341;SDS011;5216;54.602;18.356;2023-04-25T15:47:49;9.70;;;3.27;;
10341;SDS011;5216;54.602;18.356;2023-04-25T15:50:18;11.00;;;4.27;;
10341;SDS011;5216;54.602;18.356;2023-04-25T15:52:45;8.17;;;3.80;;
10341;SDS011;5216;54.602;18.356;2023-04-25T15:55:11;9.93;;;3.33;;
10341;SDS011;5216;54.602;18.356;2023-04-25T15:57:44;10.20;;;3.37;;
10341;SDS011;5216;54.602;18.356;2023-04-25T16:00:12;8.33;;;3.30;;
10341;SDS011;5216;54.602;18.356;2023-04-25T16:02:40;9.87;;;3.13;;
10341;SDS011;5216;54.602;18.356;2023-04-25T16:05:08;12.10;;;3.37;;
10341;SDS011;5216;54.602;18.356;2023-04-25T16:07:38;7.97;;;3.10;;
10341;SDS011;5216;54.602;18.356;2023-04-25T16:10:05;9.20;;;3.10;;
10341;SDS011;5216;54.602;18.356;2023-04-25T16:12:31;7.37;;;4.00;;